OAL114 LGAV-LIBR
Flight info
| Callsign | OAL114 |
|---|---|
| Flight time | 0h 59m |
| Altitude | FL320 |
| Route | KOR UL53 KRK UL995 TIGRA DAMIC |
| Aircraft | B738/M-SDE3FGHIRWY/LB1 |
Departure
| Time | 2026-04-23 19:15 |
|---|---|
| Airport | Athens Eleftherios Venizelos International Airport (LGAV) |
Arrival
| Time | 2026-04-23 20:14 |
|---|---|
| Airport | Brindisi Airport (LIBR) |
| Time | Latitude | Longitude | Altitude | Speed | Heading |
|---|---|---|---|---|---|
| 2026-04-23 18:58 | 37.93833 | 23.95065 | 300 ft | 0 kts | 308° |
| 2026-04-23 19:05 | 37.93830 | 23.95070 | 300 ft | 2 kts | 307° |
| 2026-04-23 19:05 | 37.93821 | 23.95086 | 301 ft | 2 kts | 307° |
| 2026-04-23 19:05 | 37.93811 | 23.95102 | 299 ft | 2 kts | 307° |
| 2026-04-23 19:05 | 37.93803 | 23.95118 | 300 ft | 2 kts | 282° |
| 2026-04-23 19:06 | 37.93801 | 23.95138 | 303 ft | 2 kts | 264° |
| 2026-04-23 19:06 | 37.93806 | 23.95156 | 299 ft | 2 kts | 223° |
| 2026-04-23 19:06 | 37.93810 | 23.95160 | 299 ft | 0 kts | 217° |
| 2026-04-23 19:07 | 37.93809 | 23.95160 | 299 ft | 0 kts | 217° |
| 2026-04-23 19:08 | 37.93804 | 23.95155 | 299 ft | 1 kts | 217° |
| 2026-04-23 19:08 | 37.93797 | 23.95148 | 301 ft | 1 kts | 217° |
| 2026-04-23 19:08 | 37.93790 | 23.95142 | 300 ft | 1 kts | 217° |
| 2026-04-23 19:08 | 37.93775 | 23.95127 | 301 ft | 4 kts | 217° |
| 2026-04-23 19:09 | 37.93735 | 23.95106 | 299 ft | 8 kts | 174° |
| 2026-04-23 19:09 | 37.93687 | 23.95161 | 301 ft | 9 kts | 129° |
| 2026-04-23 19:09 | 37.93654 | 23.95215 | 298 ft | 8 kts | 129° |
| 2026-04-23 19:09 | 37.93603 | 23.95231 | 296 ft | 9 kts | 198° |
| 2026-04-23 19:10 | 37.93553 | 23.95188 | 300 ft | 9 kts | 216° |
| 2026-04-23 19:10 | 37.93504 | 23.95143 | 297 ft | 9 kts | 217° |
| 2026-04-23 19:10 | 37.93456 | 23.95097 | 298 ft | 9 kts | 217° |
| 2026-04-23 19:10 | 37.93401 | 23.95045 | 298 ft | 11 kts | 217° |
| 2026-04-23 19:11 | 37.93336 | 23.94983 | 299 ft | 13 kts | 217° |
| 2026-04-23 19:11 | 37.93259 | 23.94911 | 299 ft | 15 kts | 216° |
| 2026-04-23 19:11 | 37.93171 | 23.94827 | 299 ft | 17 kts | 217° |
| 2026-04-23 19:11 | 37.93073 | 23.94733 | 300 ft | 19 kts | 217° |
| 2026-04-23 19:12 | 37.93004 | 23.94668 | 301 ft | 18 kts | 216° |
| 2026-04-23 19:12 | 37.92871 | 23.94542 | 301 ft | 17 kts | 217° |
| 2026-04-23 19:12 | 37.92776 | 23.94452 | 303 ft | 17 kts | 216° |
| 2026-04-23 19:12 | 37.92684 | 23.94365 | 303 ft | 16 kts | 217° |
| 2026-04-23 19:13 | 37.92601 | 23.94288 | 302 ft | 10 kts | 207° |
| 2026-04-23 19:13 | 37.92543 | 23.94314 | 305 ft | 10 kts | 131° |
| 2026-04-23 19:13 | 37.92506 | 23.94376 | 306 ft | 9 kts | 126° |
| 2026-04-23 19:13 | 37.92492 | 23.94446 | 309 ft | 8 kts | 70° |
| 2026-04-23 19:14 | 37.92533 | 23.94498 | 307 ft | 9 kts | 37° |
| 2026-04-23 19:14 | 37.92677 | 23.94635 | 306 ft | 57 kts | 37° |
| 2026-04-23 19:14 | 37.93181 | 23.95114 | 291 ft | 122 kts | 37° |
| 2026-04-23 19:14 | 37.94001 | 23.95894 | 390 ft | 164 kts | 37° |
| 2026-04-23 19:15 | 37.94890 | 23.96746 | 1181 ft | 163 kts | 36° |
| 2026-04-23 19:15 | 37.95821 | 23.97640 | 1846 ft | 171 kts | 36° |
| 2026-04-23 19:15 | 37.96809 | 23.98587 | 2267 ft | 192 kts | 36° |
| 2026-04-23 19:15 | 37.97930 | 23.99662 | 2473 ft | 213 kts | 36° |
| 2026-04-23 19:16 | 37.99155 | 24.00838 | 2750 ft | 228 kts | 36° |
| 2026-04-23 19:16 | 38.00429 | 24.02063 | 3251 ft | 233 kts | 36° |
| 2026-04-23 19:16 | 38.01731 | 24.03315 | 3801 ft | 238 kts | 36° |
| 2026-04-23 19:17 | 38.04400 | 24.05844 | 5279 ft | 243 kts | 29° |
| 2026-04-23 19:17 | 38.06058 | 24.06338 | 5697 ft | 256 kts | 352° |
| 2026-04-23 19:17 | 38.07701 | 24.05456 | 6335 ft | 264 kts | 322° |
| 2026-04-23 19:17 | 38.08881 | 24.03669 | 7027 ft | 269 kts | 299° |
| 2026-04-23 19:18 | 38.09560 | 24.01457 | 7773 ft | 271 kts | 288° |
| 2026-04-23 19:18 | 38.10056 | 23.99143 | 8517 ft | 273 kts | 285° |
| 2026-04-23 19:18 | 38.10513 | 23.96793 | 9256 ft | 275 kts | 285° |
| 2026-04-23 19:18 | 38.10969 | 23.94430 | 10000 ft | 277 kts | 285° |
| 2026-04-23 19:19 | 38.11952 | 23.89441 | 10571 ft | 312 kts | 285° |
| 2026-04-23 19:19 | 38.12504 | 23.86694 | 10736 ft | 332 kts | 285° |
| 2026-04-23 19:20 | 38.13694 | 23.80840 | 11672 ft | 348 kts | 285° |
| 2026-04-23 19:20 | 38.14302 | 23.77865 | 12390 ft | 349 kts | 285° |
| 2026-04-23 19:20 | 38.14916 | 23.74872 | 13094 ft | 351 kts | 285° |
| 2026-04-23 19:20 | 38.15534 | 23.71864 | 13782 ft | 354 kts | 285° |
| 2026-04-23 19:21 | 38.16156 | 23.68837 | 14420 ft | 357 kts | 284° |
| 2026-04-23 19:21 | 38.17410 | 23.62721 | 15799 ft | 360 kts | 284° |
| 2026-04-23 19:21 | 38.18041 | 23.59644 | 16480 ft | 362 kts | 284° |
| 2026-04-23 19:22 | 38.18675 | 23.56546 | 17149 ft | 364 kts | 284° |
| 2026-04-23 19:22 | 38.19312 | 23.53427 | 17809 ft | 367 kts | 284° |
| 2026-04-23 19:22 | 38.20596 | 23.47128 | 19010 ft | 370 kts | 283° |
| 2026-04-23 19:23 | 38.21240 | 23.43965 | 19616 ft | 370 kts | 283° |
| 2026-04-23 19:23 | 38.21883 | 23.40799 | 20224 ft | 372 kts | 283° |
| 2026-04-23 19:23 | 38.22520 | 23.37604 | 20724 ft | 375 kts | 283° |
| 2026-04-23 19:24 | 38.23777 | 23.31155 | 21869 ft | 377 kts | 282° |
| 2026-04-23 19:24 | 38.24414 | 23.27920 | 22419 ft | 379 kts | 282° |
| 2026-04-23 19:24 | 38.25711 | 23.21412 | 23448 ft | 382 kts | 282° |
| 2026-04-23 19:25 | 38.27029 | 23.14847 | 24279 ft | 386 kts | 282° |
| 2026-04-23 19:25 | 38.28362 | 23.08209 | 24994 ft | 391 kts | 283° |
| 2026-04-23 19:26 | 38.29717 | 23.01441 | 25631 ft | 397 kts | 282° |
| 2026-04-23 19:26 | 38.30397 | 22.98037 | 26025 ft | 398 kts | 282° |
| 2026-04-23 19:27 | 38.31764 | 22.91180 | 26728 ft | 403 kts | 282° |
| 2026-04-23 19:27 | 38.33834 | 22.80749 | 27676 ft | 408 kts | 282° |
| 2026-04-23 19:28 | 38.35227 | 22.73695 | 28086 ft | 418 kts | 283° |
| 2026-04-23 19:28 | 38.36642 | 22.66510 | 28926 ft | 416 kts | 283° |
| 2026-04-23 19:29 | 38.37340 | 22.62960 | 29518 ft | 412 kts | 283° |
| 2026-04-23 19:29 | 38.38724 | 22.55900 | 30230 ft | 412 kts | 282° |
| 2026-04-23 19:30 | 38.40106 | 22.48822 | 30861 ft | 412 kts | 283° |
| 2026-04-23 19:30 | 38.40794 | 22.45285 | 31137 ft | 413 kts | 283° |
| 2026-04-23 19:30 | 38.42184 | 22.38127 | 31518 ft | 418 kts | 283° |
| 2026-04-23 19:31 | 38.42879 | 22.34537 | 31847 ft | 417 kts | 283° |
| 2026-04-23 19:31 | 38.43572 | 22.30957 | 32053 ft | 419 kts | 283° |
| 2026-04-23 19:31 | 38.44271 | 22.27332 | 32045 ft | 422 kts | 283° |
| 2026-04-23 19:32 | 38.45667 | 22.20081 | 32044 ft | 420 kts | 283° |
| 2026-04-23 19:32 | 38.47040 | 22.12927 | 32061 ft | 415 kts | 283° |
| 2026-04-23 19:33 | 38.48418 | 22.05715 | 32057 ft | 424 kts | 283° |
| 2026-04-23 19:33 | 38.50515 | 21.94696 | 32038 ft | 427 kts | 283° |
| 2026-04-23 19:34 | 38.51923 | 21.87362 | 32031 ft | 426 kts | 286° |
| 2026-04-23 19:34 | 38.54361 | 21.80509 | 32033 ft | 427 kts | 302° |
| 2026-04-23 19:35 | 38.56028 | 21.77393 | 32031 ft | 427 kts | 304° |
| 2026-04-23 19:35 | 38.59411 | 21.71174 | 32039 ft | 427 kts | 303° |
| 2026-04-23 19:36 | 38.62759 | 21.64933 | 32039 ft | 427 kts | 303° |
| 2026-04-23 19:36 | 38.66092 | 21.58651 | 32034 ft | 428 kts | 303° |
| 2026-04-23 19:37 | 38.69419 | 21.52363 | 32038 ft | 428 kts | 303° |
| 2026-04-23 19:37 | 38.72754 | 21.46049 | 32032 ft | 429 kts | 303° |
| 2026-04-23 19:38 | 38.76089 | 21.39714 | 32022 ft | 430 kts | 303° |
| 2026-04-23 19:38 | 38.79423 | 21.33365 | 32025 ft | 430 kts | 303° |
| 2026-04-23 19:39 | 38.82758 | 21.27004 | 32019 ft | 431 kts | 303° |
| 2026-04-23 19:39 | 38.86091 | 21.20633 | 32019 ft | 431 kts | 303° |
| 2026-04-23 19:40 | 38.89422 | 21.14255 | 32013 ft | 431 kts | 303° |
| 2026-04-23 19:40 | 38.92750 | 21.07867 | 32002 ft | 431 kts | 303° |
| 2026-04-23 19:41 | 38.96078 | 21.01469 | 32004 ft | 432 kts | 303° |
| 2026-04-23 19:41 | 38.99409 | 20.95052 | 31992 ft | 434 kts | 304° |
| 2026-04-23 19:42 | 39.02756 | 20.88597 | 32008 ft | 436 kts | 304° |
| 2026-04-23 19:42 | 39.06123 | 20.82091 | 32004 ft | 439 kts | 304° |
| 2026-04-23 19:43 | 39.09511 | 20.75530 | 31993 ft | 443 kts | 305° |
| 2026-04-23 19:43 | 39.12918 | 20.68917 | 32004 ft | 445 kts | 305° |
| 2026-04-23 19:44 | 39.16341 | 20.62259 | 32003 ft | 448 kts | 305° |
| 2026-04-23 19:44 | 39.19772 | 20.55570 | 31995 ft | 449 kts | 305° |
| 2026-04-23 19:45 | 39.23204 | 20.48867 | 31994 ft | 449 kts | 305° |
| 2026-04-23 19:45 | 39.26631 | 20.42161 | 31974 ft | 448 kts | 305° |
| 2026-04-23 19:46 | 39.30058 | 20.35464 | 31985 ft | 448 kts | 305° |
| 2026-04-23 19:46 | 39.33484 | 20.28762 | 31962 ft | 449 kts | 307° |
| 2026-04-23 19:47 | 39.36919 | 20.22028 | 31979 ft | 451 kts | 307° |
| 2026-04-23 19:47 | 39.38638 | 20.18651 | 31867 ft | 450 kts | 307° |
| 2026-04-23 19:47 | 39.40346 | 20.15289 | 31501 ft | 445 kts | 307° |
| 2026-04-23 19:47 | 39.42029 | 20.11974 | 31057 ft | 440 kts | 307° |
| 2026-04-23 19:48 | 39.43698 | 20.08685 | 30647 ft | 436 kts | 307° |
| 2026-04-23 19:48 | 39.45391 | 20.05458 | 30232 ft | 432 kts | 310° |
| 2026-04-23 19:48 | 39.47157 | 20.02338 | 29757 ft | 429 kts | 311° |
| 2026-04-23 19:48 | 39.48947 | 19.99279 | 29275 ft | 425 kts | 312° |
| 2026-04-23 19:49 | 39.50732 | 19.96257 | 28849 ft | 421 kts | 312° |
| 2026-04-23 19:49 | 39.52496 | 19.93260 | 28408 ft | 418 kts | 312° |
| 2026-04-23 19:49 | 39.54239 | 19.90282 | 27993 ft | 414 kts | 312° |
| 2026-04-23 19:49 | 39.55967 | 19.87313 | 27576 ft | 413 kts | 312° |
| 2026-04-23 19:50 | 39.57682 | 19.84354 | 27140 ft | 411 kts | 312° |
| 2026-04-23 19:50 | 39.59398 | 19.81385 | 26756 ft | 416 kts | 312° |
| 2026-04-23 19:50 | 39.61142 | 19.78368 | 26325 ft | 422 kts | 312° |
| 2026-04-23 19:50 | 39.62899 | 19.75319 | 25892 ft | 422 kts | 312° |
| 2026-04-23 19:51 | 39.64642 | 19.72282 | 25414 ft | 419 kts | 313° |
| 2026-04-23 19:51 | 39.66366 | 19.69274 | 25043 ft | 414 kts | 313° |
| 2026-04-23 19:51 | 39.68078 | 19.66287 | 24637 ft | 412 kts | 313° |
| 2026-04-23 19:51 | 39.69780 | 19.63316 | 24231 ft | 410 kts | 313° |
| 2026-04-23 19:52 | 39.71473 | 19.60359 | 23790 ft | 408 kts | 313° |
| 2026-04-23 19:52 | 39.73159 | 19.57413 | 23350 ft | 406 kts | 313° |
| 2026-04-23 19:52 | 39.74837 | 19.54480 | 22889 ft | 404 kts | 312° |
| 2026-04-23 19:52 | 39.76500 | 19.51566 | 22466 ft | 401 kts | 312° |
| 2026-04-23 19:53 | 39.78149 | 19.48677 | 22068 ft | 396 kts | 312° |
| 2026-04-23 19:53 | 39.79774 | 19.45824 | 21687 ft | 392 kts | 312° |
| 2026-04-23 19:53 | 39.81388 | 19.42990 | 21254 ft | 389 kts | 312° |
| 2026-04-23 19:53 | 39.82990 | 19.40176 | 20859 ft | 386 kts | 311° |
| 2026-04-23 19:54 | 39.84579 | 19.37383 | 20459 ft | 383 kts | 311° |
| 2026-04-23 19:54 | 39.86151 | 19.34615 | 20072 ft | 380 kts | 311° |
| 2026-04-23 19:54 | 39.87713 | 19.31863 | 19676 ft | 377 kts | 311° |
| 2026-04-23 19:54 | 39.89263 | 19.29131 | 19300 ft | 374 kts | 311° |
| 2026-04-23 19:55 | 39.90803 | 19.26413 | 18912 ft | 372 kts | 311° |
| 2026-04-23 19:55 | 39.92329 | 19.23718 | 18542 ft | 369 kts | 311° |
| 2026-04-23 19:55 | 39.93841 | 19.21044 | 18132 ft | 367 kts | 311° |
| 2026-04-23 19:55 | 39.95346 | 19.18382 | 17685 ft | 364 kts | 311° |
| 2026-04-23 19:56 | 39.96837 | 19.15741 | 17282 ft | 361 kts | 311° |
| 2026-04-23 19:56 | 39.98317 | 19.13118 | 16897 ft | 358 kts | 311° |
| 2026-04-23 19:56 | 39.99780 | 19.10522 | 16522 ft | 354 kts | 311° |
| 2026-04-23 19:56 | 40.01229 | 19.07951 | 16158 ft | 351 kts | 311° |
| 2026-04-23 19:57 | 40.02665 | 19.05400 | 15784 ft | 348 kts | 311° |
| 2026-04-23 19:57 | 40.04088 | 19.02870 | 15409 ft | 346 kts | 311° |
| 2026-04-23 19:57 | 40.05505 | 19.00349 | 15039 ft | 343 kts | 311° |
| 2026-04-23 19:57 | 40.06909 | 18.97854 | 14682 ft | 341 kts | 311° |
| 2026-04-23 19:58 | 40.08311 | 18.95367 | 14309 ft | 339 kts | 311° |
| 2026-04-23 19:58 | 40.09701 | 18.92901 | 13946 ft | 337 kts | 311° |
| 2026-04-23 19:58 | 40.11081 | 18.90452 | 13550 ft | 335 kts | 311° |
| 2026-04-23 19:58 | 40.12457 | 18.88008 | 13154 ft | 333 kts | 311° |
| 2026-04-23 19:59 | 40.13817 | 18.85588 | 12787 ft | 330 kts | 311° |
| 2026-04-23 19:59 | 40.15168 | 18.83183 | 12418 ft | 328 kts | 311° |
| 2026-04-23 19:59 | 40.16510 | 18.80791 | 12052 ft | 325 kts | 310° |
| 2026-04-23 19:59 | 40.17837 | 18.78425 | 11700 ft | 323 kts | 309° |
| 2026-04-23 20:00 | 40.19156 | 18.76073 | 11341 ft | 320 kts | 309° |
| 2026-04-23 20:00 | 40.20457 | 18.73751 | 11000 ft | 318 kts | 309° |
| 2026-04-23 20:00 | 40.21758 | 18.71427 | 10646 ft | 316 kts | 309° |
| 2026-04-23 20:00 | 40.23037 | 18.69139 | 10497 ft | 307 kts | 309° |
| 2026-04-23 20:01 | 40.24277 | 18.66917 | 10350 ft | 299 kts | 309° |
| 2026-04-23 20:01 | 40.25483 | 18.64756 | 10227 ft | 290 kts | 309° |
| 2026-04-23 20:01 | 40.26654 | 18.62655 | 10102 ft | 282 kts | 309° |
| 2026-04-23 20:01 | 40.27797 | 18.60607 | 9890 ft | 278 kts | 309° |
| 2026-04-23 20:02 | 40.28931 | 18.58573 | 9598 ft | 276 kts | 309° |
| 2026-04-23 20:02 | 40.30057 | 18.56553 | 9317 ft | 274 kts | 309° |
| 2026-04-23 20:02 | 40.31174 | 18.54546 | 9039 ft | 272 kts | 309° |
| 2026-04-23 20:02 | 40.32284 | 18.52552 | 8764 ft | 270 kts | 309° |
| 2026-04-23 20:03 | 40.33385 | 18.50569 | 8491 ft | 269 kts | 309° |
| 2026-04-23 20:03 | 40.34480 | 18.48599 | 8216 ft | 267 kts | 309° |
| 2026-04-23 20:03 | 40.35567 | 18.46641 | 7949 ft | 266 kts | 310° |
| 2026-04-23 20:03 | 40.36649 | 18.44691 | 7676 ft | 264 kts | 309° |
| 2026-04-23 20:04 | 40.37725 | 18.42749 | 7413 ft | 263 kts | 309° |
| 2026-04-23 20:04 | 40.38797 | 18.40814 | 7136 ft | 262 kts | 309° |
| 2026-04-23 20:04 | 40.39868 | 18.38881 | 6825 ft | 263 kts | 310° |
| 2026-04-23 20:04 | 40.40943 | 18.36940 | 6545 ft | 263 kts | 310° |
| 2026-04-23 20:05 | 40.42017 | 18.34998 | 6256 ft | 264 kts | 309° |
| 2026-04-23 20:05 | 40.43090 | 18.33056 | 5970 ft | 263 kts | 310° |
| 2026-04-23 20:05 | 40.44163 | 18.31115 | 5692 ft | 263 kts | 310° |
| 2026-04-23 20:05 | 40.45230 | 18.29180 | 5414 ft | 262 kts | 309° |
| 2026-04-23 20:06 | 40.46291 | 18.27263 | 5152 ft | 257 kts | 310° |
| 2026-04-23 20:06 | 40.47351 | 18.25471 | 5036 ft | 239 kts | 311° |
| 2026-04-23 20:06 | 40.48333 | 18.23821 | 4915 ft | 221 kts | 307° |
| 2026-04-23 20:06 | 40.48749 | 18.21948 | 4742 ft | 213 kts | 272° |
| 2026-04-23 20:07 | 40.48557 | 18.20015 | 4298 ft | 215 kts | 259° |
| 2026-04-23 20:07 | 40.47982 | 18.18251 | 3982 ft | 212 kts | 234° |
| 2026-04-23 20:07 | 40.47197 | 18.16709 | 3742 ft | 196 kts | 262° |
| 2026-04-23 20:07 | 40.47417 | 18.15098 | 3666 ft | 181 kts | 315° |
| 2026-04-23 20:08 | 40.48463 | 18.14410 | 3566 ft | 169 kts | 5° |
| 2026-04-23 20:08 | 40.49611 | 18.14446 | 3515 ft | 167 kts | 344° |
| 2026-04-23 20:08 | 40.50499 | 18.13481 | 3535 ft | 173 kts | 316° |
| 2026-04-23 20:08 | 40.51361 | 18.12394 | 3518 ft | 171 kts | 323° |
| 2026-04-23 20:09 | 40.52249 | 18.11352 | 3513 ft | 172 kts | 323° |
| 2026-04-23 20:09 | 40.53134 | 18.10286 | 3407 ft | 175 kts | 322° |
| 2026-04-23 20:09 | 40.54022 | 18.09202 | 3181 ft | 171 kts | 322° |
| 2026-04-23 20:09 | 40.54858 | 18.08171 | 2950 ft | 159 kts | 322° |
| 2026-04-23 20:10 | 40.55379 | 18.07529 | 2809 ft | 150 kts | 322° |
| 2026-04-23 20:10 | 40.56358 | 18.06328 | 2565 ft | 142 kts | 322° |
| 2026-04-23 20:10 | 40.57046 | 18.05482 | 2388 ft | 134 kts | 322° |
| 2026-04-23 20:10 | 40.57707 | 18.04670 | 2201 ft | 128 kts | 322° |
| 2026-04-23 20:11 | 40.58352 | 18.03879 | 2032 ft | 127 kts | 322° |
| 2026-04-23 20:11 | 40.58996 | 18.03090 | 1862 ft | 126 kts | 321° |
| 2026-04-23 20:11 | 40.59633 | 18.02307 | 1687 ft | 125 kts | 321° |
| 2026-04-23 20:11 | 40.60266 | 18.01529 | 1517 ft | 125 kts | 321° |
| 2026-04-23 20:12 | 40.60900 | 18.00750 | 1351 ft | 125 kts | 321° |
| 2026-04-23 20:12 | 40.61534 | 17.99972 | 1180 ft | 124 kts | 321° |
| 2026-04-23 20:12 | 40.62165 | 17.99197 | 1011 ft | 124 kts | 321° |
| 2026-04-23 20:12 | 40.62803 | 17.98414 | 836 ft | 126 kts | 319° |
| 2026-04-23 20:13 | 40.63452 | 17.97616 | 670 ft | 130 kts | 319° |
| 2026-04-23 20:13 | 40.64109 | 17.96808 | 507 ft | 127 kts | 321° |
| 2026-04-23 20:13 | 40.64764 | 17.96006 | 335 ft | 130 kts | 321° |
| 2026-04-23 20:13 | 40.65440 | 17.95177 | 146 ft | 132 kts | 321° |
| 2026-04-23 20:14 | 40.66089 | 17.94379 | 40 ft | 119 kts | 320° |
| 2026-04-23 20:14 | 40.66567 | 17.93803 | 39 ft | 63 kts | 316° |
| 2026-04-23 20:14 | 40.66779 | 17.93540 | 38 ft | 34 kts | 317° |
| 2026-04-23 20:14 | 40.66937 | 17.93350 | 39 ft | 29 kts | 316° |
| 2026-04-23 20:15 | 40.67079 | 17.93172 | 41 ft | 27 kts | 317° |
| 2026-04-23 20:15 | 40.67200 | 17.93026 | 40 ft | 17 kts | 320° |
| 2026-04-23 20:15 | 40.67295 | 17.93023 | 41 ft | 13 kts | 43° |
| 2026-04-23 20:15 | 40.67344 | 17.93105 | 43 ft | 11 kts | 71° |
| 2026-04-23 20:16 | 40.67315 | 17.93187 | 43 ft | 11 kts | 137° |
| 2026-04-23 20:16 | 40.67263 | 17.93252 | 43 ft | 10 kts | 136° |
| 2026-04-23 20:16 | 40.67212 | 17.93315 | 43 ft | 10 kts | 139° |
| 2026-04-23 20:16 | 40.67159 | 17.93376 | 43 ft | 11 kts | 139° |
| 2026-04-23 20:17 | 40.67092 | 17.93454 | 43 ft | 15 kts | 138° |
| 2026-04-23 20:17 | 40.67011 | 17.93554 | 43 ft | 17 kts | 136° |
| 2026-04-23 20:17 | 40.66927 | 17.93656 | 43 ft | 16 kts | 137° |
| 2026-04-23 20:17 | 40.66847 | 17.93756 | 43 ft | 16 kts | 136° |
| 2026-04-23 20:18 | 40.66770 | 17.93850 | 43 ft | 15 kts | 137° |
| 2026-04-23 20:18 | 40.66695 | 17.93940 | 43 ft | 14 kts | 138° |
| 2026-04-23 20:18 | 40.66624 | 17.94026 | 43 ft | 14 kts | 137° |
| 2026-04-23 20:18 | 40.66556 | 17.94109 | 43 ft | 13 kts | 136° |
| 2026-04-23 20:19 | 40.66484 | 17.94196 | 43 ft | 16 kts | 137° |
| 2026-04-23 20:19 | 40.66397 | 17.94301 | 43 ft | 18 kts | 136° |
| 2026-04-23 20:19 | 40.66310 | 17.94411 | 43 ft | 17 kts | 138° |
| 2026-04-23 20:19 | 40.66222 | 17.94513 | 43 ft | 16 kts | 137° |
| 2026-04-23 20:20 | 40.66141 | 17.94614 | 43 ft | 16 kts | 136° |
| 2026-04-23 20:20 | 40.66058 | 17.94703 | 43 ft | 15 kts | 167° |
| 2026-04-23 20:20 | 40.65981 | 17.94620 | 39 ft | 16 kts | 233° |
| 2026-04-23 20:20 | 40.65913 | 17.94506 | 39 ft | 16 kts | 232° |
| 2026-04-23 20:21 | 40.65848 | 17.94395 | 42 ft | 15 kts | 232° |
| 2026-04-23 20:21 | 40.65786 | 17.94288 | 43 ft | 14 kts | 233° |
| 2026-04-23 20:21 | 40.65741 | 17.94196 | 43 ft | 5 kts | 268° |
| 2026-04-23 20:21 | 40.65765 | 17.94164 | 42 ft | 5 kts | 324° |
| 2026-04-23 20:22 | 40.65793 | 17.94136 | 43 ft | 5 kts | 323° |
| 2026-04-23 20:22 | 40.65814 | 17.94116 | 43 ft | 0 kts | 323° |